• Join FlightAware (Why Join?)
  • Login
  • US Flag 
12:11AM EDT


 

Airport Tracker/Info


-or-


 

Live Flight TrackerFlight Track Log ✈ UAL4108 ✈ 28-Apr-2013 ✈ KLIT - KIAH

Flight Track Log - Related Links

Times and Time Zones

All times are in EDT time to prevent confusion due to time zone crossing. See the UAL4108 flight status page for this flight to view local times or setup timezone preferences in your user account.

Time Position Orientation Groundspeed Altitude Reporting Facility
EDT Latitude Longitude Course Direction KTS MPH feet Rate Location/Type
08:08PM 34.7178 -92.2469 193° South 159 183 700  Level Memphis Center
08:09PM 34.6883 -92.2564 195° South 184 212 2,000 2,220 Climbing Memphis Center
08:10PM 34.6217 -92.2575 181° South 254 292 4,400 2,400 Climbing Memphis Center
08:11PM 34.4875 -92.3933 190° South  Level Estimated
08:11PM 34.5486 -92.2608 182° South 294 338 6,900  Level Memphis Center
08:11PM 34.5006 -92.2572 176° South 297 342 8,600 2,220 Climbing Memphis Center
08:12PM 34.3982 -92.3619 164° South  Level FlightAware Approximate
08:12PM 34.4108 -92.2603 182° South 311 358 10,500  Level Memphis Center
08:13PM 34.3181 -92.4191 193° South  Level Estimated
08:13PM 34.3044 -92.2631 181° South 342 394 11,500  Level Memphis Center
08:14PM 34.1956 -92.2708 183° South 381 438 13,500 2,100 Climbing Memphis Center
08:15PM 34.0889 -92.2908 189° South 395 455 15,700 2,100 Climbing Memphis Center
08:16PM 33.9967 -92.3114 190° South 389 448 17,700 1,920 Climbing Memphis Center
08:17PM 33.8922 -92.3317 189° South 389 448 19,600 1,440 Climbing Memphis Center
08:19PM 33.7564 -92.3572 189° South 397 457 20,900 1,260 Climbing Fort Worth Center
08:20PM 33.6425 -92.3761 188° South 414 476 22,400 1,560 Climbing Fort Worth Center
08:21PM 33.5264 -92.3953 188° South 419 482 24,100 1,680 Climbing Fort Worth Center
08:22PM 33.4167 -92.4164 189° South 419 482 25,800 1,560 Climbing Fort Worth Center
08:23PM 33.3006 -92.4356 188° South 419 482 27,300 1,080 Climbing Fort Worth Center
08:24PM 33.1886 -92.4567 189° South 414 476 28,000 300 Climbing Fort Worth Center
08:25PM 33.0686 -92.4808 190° South 424 488 28,000  Level Fort Worth Center
08:26PM 32.9419 -92.5000 187° South 443 510 28,000  Level Fort Worth Center
08:27PM 32.8175 -92.5217 188° South 459 528 28,000  Level Fort Worth Center
08:28PM 32.6911 -92.5458 189° South 464 534 28,000  Level Fort Worth Center
08:29PM 32.5647 -92.5675 188° South 464 534 28,000  Level Fort Worth Center
08:30PM 32.4364 -92.5917 189° South 464 534 28,000  Level Fort Worth Center
08:30PM 32.3303 -92.6150 191° South 461 531 28,000  Level Houston Center
08:31PM 32.2044 -92.6381 189° South 458 527 28,000  Level Houston Center
08:33PM 32.0814 -92.6603 189° South 450 518 28,000  Level Houston Center
08:34PM 31.9625 -92.6881 191° South 440 506 28,000  Level Houston Center
08:35PM 31.8711 -92.7789 220° Southwest 425 489 28,000  Level Houston Center
08:36PM 31.7761 -92.8692 219° Southwest 431 496 28,000  Level Houston Center
08:37PM 31.6861 -92.9550 219° Southwest 429 494 28,000  Level Houston Center
08:38PM 31.5772 -93.0617 220° Southwest 428 493 28,000  Level Houston Center
08:39PM 31.4858 -93.1478 219° Southwest 424 488 28,000  Level Houston Center
08:40PM 31.3950 -93.2347 219° Southwest 423 487 28,000 -180 Level Houston Center
08:41PM 31.3006 -93.3253 219° Southwest 413 475 27,700 -1,020 Descending Houston Center
08:42PM 31.2236 -93.3992 219° Southwest 392 451 26,000 -1,500 Descending Houston Center
08:43PM 31.1231 -93.4928 219° Southwest 388 447 24,600 -1,020 Descending Houston Center
08:44PM 31.0475 -93.5669 220° Southwest 369 425 23,900 -1,440 Descending Houston Center
08:45PM 30.9725 -93.6358 218° Southwest 351 404 21,700 -2,160 Descending Houston Center
08:46PM 30.8983 -93.7075 220° Southwest 348 400 19,500 -1,320 Descending Houston Center
08:47PM 30.8225 -93.7792 219° Southwest 352 405 19,000 -300 Descending Houston Center
08:48PM 30.7442 -93.8525 219° Southwest 361 415 19,000  Level Houston Center
08:49PM 30.6478 -93.9433 219° Southwest 373 429 19,000 -180 Level Houston Center
08:50PM 30.5664 -94.0192 219° Southwest 377 434 18,700 -1,200 Descending Houston Center
08:51PM 30.4878 -94.0928 219° Southwest 367 422 16,600 -2,040 Descending Houston Center
08:52PM 30.4156 -94.1611 219° Southwest 341 392 14,500 -2,100 Descending Houston Center
08:53PM 30.3656 -94.2067 218° Southwest 324 373 13,200 -1,920 Descending Houston Center
08:53PM 30.3442 -94.2278 220° Southwest 334 384 12,600 -1,080 Descending Houston Center
08:54PM 30.2847 -94.2828 219° Southwest 333 383 12,000 -600 Descending Houston Center
08:54PM 30.2728 -94.2936 218° Southwest 330 380 12,000 60 Level Houston Center
08:55PM 30.2117 -94.3506 219° Southwest 311 358 12,100  Climbing Houston Center
08:55PM 30.1981 -94.3797 242° Southwest 324 373 12,000 -240 Descending Houston Center
08:56PM 30.1822 -94.4561 257° West 341 392 11,900 -420 Descending Houston Center
08:56PM 30.1772 -94.4856 259° West 335 386 11,600 -1,020 Descending Houston Center
08:57PM 30.1644 -94.5550 258° West 318 366 10,900 -1,020 Descending Houston Center
08:57PM 30.1603 -94.5844 261° West 323 372 10,600 -900 Descending Houston Center
08:58PM 30.1458 -94.6664 258° West 341 392 10,000 -600 Descending Houston Center
08:58PM 30.1425 -94.6900 261° West 331 381 10,000  Level Houston Center
08:59PM 30.1286 -94.7700 259° West 327 376 10,000  Level Houston Center
08:59PM 30.1250 -94.7936 260° West 331 381 10,000  Level Houston Center
09:00PM 30.1089 -94.8739 257° West 325 374 10,000  Level Houston Center
09:00PM 30.1072 -94.8944 265° West 325 374 10,000 -1,320 Level Houston Center
09:01PM 30.1053 -94.9664 268° West 279 321 8,700 -1,620 Descending Houston Center
09:01PM 30.1069 -94.9853 276° West 293 337 8,400 -1,800 Descending Houston Center
09:02PM 30.1061 -95.0653 269° West 295 339 6,900 -1,800 Descending Houston Center
09:02PM 30.1069 -95.0981 272° West 292 336 6,600 -840 Descending Houston Center
09:03PM 30.1067 -95.1617 270° West 301 346 6,100 -600 Descending Houston Center
09:03PM 30.1069 -95.1933 271° West 296 341 6,000 -120 Descending Houston Center
09:04PM 30.1069 -95.2558 270° West 278 320 6,000  Level Houston Center
09:04PM 30.1078 -95.2836 272° West 290 334 6,000  Level Houston Center
09:05PM 30.1069 -95.3478 269° West 294 338 6,000  Level Houston Center
09:05PM 30.1069 -95.3753 270° West 287 330 6,000 -360 Level Houston Center
09:06PM 30.1061 -95.4300 269° West 272 313 5,700 -1,200 Descending Houston Center
09:06PM 30.1078 -95.4650 273° West 284 327 4,800 -2,460 Descending Houston Center
09:07PM 30.0883 -95.5117 244° Southwest 255 293 3,200 -2,400 Descending Houston Center
09:07PM 30.0681 -95.5183 196° South 256 295 2,400 -1,560 Descending Houston Center